createdAt,value
2016-12-22T00:05:01.581Z,3.9
2016-12-22T00:25:30.180Z,3.7
2016-12-22T00:35:44.955Z,3.7
2016-12-22T00:45:58.432Z,3.7
2016-12-22T00:56:12.140Z,3.7
2016-12-22T01:06:26.183Z,3.7
2016-12-22T01:16:40.194Z,3.7
2016-12-22T01:26:54.171Z,3.7
2016-12-22T01:37:08.986Z,3.7
2016-12-22T01:47:22.722Z,3.7
2016-12-22T02:07:51.740Z,3.6
2016-12-22T02:18:04.883Z,3.7
2016-12-22T02:28:19.857Z,3.7
2016-12-22T02:38:34.319Z,3.7
2016-12-22T02:48:48.003Z,3.8
2016-12-22T02:59:02.222Z,3.8
2016-12-22T03:09:15.973Z,3.9
2016-12-22T03:19:30.895Z,3.8
2016-12-22T03:29:45.250Z,3.7
2016-12-22T03:39:59.683Z,3.8
2016-12-22T03:50:13.913Z,3.7
2016-12-22T04:00:27.600Z,3.7
2016-12-22T04:10:42.684Z,3.7
2016-12-22T04:20:56.589Z,3.7
2016-12-22T04:31:10.636Z,3.7
2016-12-22T04:41:23.727Z,3.7
2016-12-22T04:51:37.639Z,3.7
2016-12-22T05:12:07.115Z,3.7
2016-12-22T05:32:34.124Z,3.6
2016-12-22T05:42:48.135Z,3.7
2016-12-22T05:53:01.260Z,3.8
2016-12-22T06:03:14.333Z,3.8
2016-12-22T06:13:28.485Z,3.7
2016-12-22T06:23:42.093Z,3.8
2016-12-22T06:33:55.709Z,3.8
2016-12-22T06:44:10.388Z,3.9
2016-12-22T06:54:23.650Z,4
2016-12-22T07:04:38.012Z,3.9
2016-12-22T07:14:51.343Z,3.9
2016-12-22T07:25:05.494Z,4.1
2016-12-22T07:35:20.417Z,4.1
2016-12-22T07:45:35.364Z,4.2
2016-12-22T07:55:49.556Z,4.2
2016-12-22T08:06:02.525Z,4.2
2016-12-22T08:16:16.784Z,4.2
2016-12-22T08:26:30.590Z,4.3
2016-12-22T08:36:44.133Z,4.4
2016-12-22T08:46:57.704Z,4.5
2016-12-22T08:57:10.916Z,4.5
2016-12-22T09:07:24.938Z,4.5
2016-12-22T09:17:38.468Z,4.6
2016-12-22T09:27:52.045Z,4.5
2016-12-22T09:38:07.019Z,4.5
2016-12-22T09:48:20.875Z,4.5
2016-12-22T09:58:33.745Z,4.6
2016-12-22T10:08:48.047Z,4.7
2016-12-22T10:19:02.120Z,4.7
2016-12-22T10:29:16.375Z,4.6
2016-12-22T10:39:29.887Z,4.8
2016-12-22T10:49:43.505Z,4.7
2016-12-22T10:59:57.521Z,4.9
2016-12-22T11:10:11.117Z,4.9
2016-12-22T11:20:25.315Z,4.9
2016-12-22T11:30:38.797Z,5
2016-12-22T11:40:52.628Z,5.1
2016-12-22T11:51:06.542Z,5
2016-12-22T12:01:20.863Z,5.1
2016-12-22T12:11:35.407Z,5.2
2016-12-22T12:21:50.985Z,5.2
2016-12-22T12:32:04.373Z,5.3
2016-12-22T12:42:18.322Z,5.4
2016-12-22T12:52:33.031Z,5.6
2016-12-22T13:02:47.862Z,5.6
2016-12-22T13:13:01.123Z,5.7
2016-12-22T13:23:14.676Z,5.7
2016-12-22T13:33:30.407Z,5.7
2016-12-22T13:43:43.051Z,5.7
2016-12-22T13:53:57.141Z,5.7
2016-12-22T14:04:11.040Z,5.7
2016-12-22T14:14:25.790Z,5.7
2016-12-22T14:24:39.599Z,5.7
2016-12-22T14:34:53.617Z,5.8
2016-12-22T14:45:07.281Z,5.8
2016-12-22T14:55:21.411Z,5.8
2016-12-22T15:05:35.920Z,5.8
2016-12-22T15:15:49.660Z,5.9
2016-12-22T15:26:04.608Z,5.7
2016-12-22T15:36:19.432Z,5.8
2016-12-22T15:46:33.329Z,5.8
2016-12-22T15:56:48.211Z,5.7
2016-12-22T16:07:02.528Z,5.5
2016-12-22T16:17:15.805Z,5.6
2016-12-22T16:27:29.428Z,5.6
2016-12-22T16:37:44.073Z,5.6
2016-12-22T16:47:57.611Z,5.6
2016-12-22T16:58:12.288Z,5.5
2016-12-22T17:08:26.525Z,5.6
2016-12-22T17:28:56.072Z,5.4
2016-12-22T17:39:10.249Z,5.5
2016-12-22T17:49:23.496Z,5.5
2016-12-22T17:59:37.784Z,5.6
2016-12-22T18:09:51.277Z,5.4
2016-12-22T18:20:04.607Z,5.6
2016-12-22T18:40:32.460Z,5.6
2016-12-22T18:50:47.107Z,5.6
2016-12-22T19:11:16.069Z,5.5
2016-12-22T19:21:30.730Z,5.5
2016-12-22T19:31:45.471Z,5.6
2016-12-22T19:42:00.358Z,5.6
2016-12-22T19:52:13.969Z,5.6
2016-12-22T20:02:27.488Z,5.6
2016-12-22T20:12:42.495Z,5.7
2016-12-22T20:22:56.906Z,5.7
2016-12-22T20:33:10.590Z,5.7
2016-12-22T20:43:24.195Z,5.7
2016-12-22T20:53:37.945Z,5.7
2016-12-22T21:03:51.325Z,5.7
2016-12-22T21:14:06.043Z,5.8
2016-12-22T21:34:34.937Z,5.7
2016-12-22T21:44:49.608Z,5.7
2016-12-22T21:55:02.943Z,5.7
2016-12-22T22:05:16.468Z,5.7
2016-12-22T22:15:30.448Z,5.8
2016-12-22T22:25:44.577Z,5.6
2016-12-22T22:35:59.340Z,5.5
2016-12-22T22:46:13.796Z,5.4
2016-12-22T22:56:27.208Z,5.3
2016-12-22T23:06:41.399Z,5.1
2016-12-22T23:16:55.291Z,5.1
2016-12-22T23:27:09.381Z,5
2016-12-22T23:37:22.881Z,4.9
2016-12-22T23:47:37.786Z,5.2
2016-12-22T23:57:52.472Z,5.4
